Time;durP1;ratioP1;P1;durP2;ratioP2;P2;SDS_P1;SDS_P2;PMS_P1;PMS_P2;Temp;Humidity;BMP_temperature;BMP_pressure;BME280_temperature;BME280_humidity;BME280_pressure;Samples;Min_cycle;Max_cycle;Signal;HPM_P1;HPM_P2
2021/05/19 00:00:20;;;;;;;22.50;12.95;;;5.80;99.90;;;;;;4954451;29;20132;-79
2021/05/19 00:02:46;;;;;;;24.70;14.20;;;5.80;99.90;;;;;;4955647;28;20063;-79
2021/05/19 00:05:11;;;;;;;27.33;14.20;;;5.80;99.90;;;;;;4955029;28;20121;-79
2021/05/19 00:07:37;;;;;;;23.77;14.73;;;5.80;99.90;;;;;;4955568;29;20067;-79
2021/05/19 00:10:04;;;;;;;26.25;14.55;;;5.80;99.90;;;;;;4955574;28;20428;-79
2021/05/19 00:12:30;;;;;;;30.17;14.80;;;5.90;99.90;;;;;;4955285;28;20035;-79
2021/05/19 00:14:56;;;;;;;21.30;13.90;;;5.90;99.90;;;;;;4955149;29;20028;-78
2021/05/19 00:17:21;;;;;;;24.15;13.55;;;5.80;99.90;;;;;;4954192;29;20019;-79
2021/05/19 00:19:47;;;;;;;28.52;15.85;;;5.80;99.90;;;;;;4955321;28;20031;-79
2021/05/19 00:22:13;;;;;;;29.55;16.77;;;5.80;99.90;;;;;;4954036;28;20031;-79
2021/05/19 00:24:38;;;;;;;35.10;17.48;;;5.80;99.90;;;;;;4954743;28;20114;-78
2021/05/19 00:27:04;;;;;;;31.63;16.90;;;5.90;99.90;;;;;;4955244;29;20094;-79
2021/05/19 00:29:30;;;;;;;33.60;17.65;;;5.90;99.90;;;;;;4954989;28;20033;-78
2021/05/19 00:31:55;;;;;;;30.42;18.35;;;5.90;99.90;;;;;;4953825;28;20023;-79
2021/05/19 00:34:21;;;;;;;32.85;18.35;;;5.90;99.90;;;;;;4953323;29;20090;-79
2021/05/19 00:36:46;;;;;;;33.55;19.52;;;5.90;99.90;;;;;;4954905;29;20059;-79
2021/05/19 00:39:12;;;;;;;30.70;17.77;;;5.90;99.90;;;;;;4955032;29;20082;-79
2021/05/19 00:41:40;;;;;;;32.15;19.80;;;5.90;99.90;;;;;;4954911;29;20400;-79
2021/05/19 00:44:08;;;;;;;34.40;17.88;;;5.90;99.90;;;;;;4950083;29;20130;-78
2021/05/19 00:46:34;;;;;;;38.67;19.67;;;5.90;99.90;;;;;;4935593;29;20028;-78
2021/05/19 00:49:00;;;;;;;34.15;19.55;;;5.90;99.90;;;;;;4950306;29;20055;-79
2021/05/19 00:51:26;;;;;;;28.52;18.88;;;5.80;99.90;;;;;;4935613;29;20515;-79
2021/05/19 00:53:52;;;;;;;29.00;18.67;;;5.70;99.90;;;;;;4942300;29;20098;-79
2021/05/19 00:56:19;;;;;;;28.38;16.73;;;5.60;99.90;;;;;;4954382;28;20051;-79
2021/05/19 00:58:45;;;;;;;26.88;17.98;;;5.60;99.90;;;;;;4954261;28;20031;-78
2021/05/19 01:01:11;;;;;;;21.30;14.07;;;5.50;99.90;;;;;;4953244;28;20131;-79
2021/05/19 01:03:37;;;;;;;29.40;15.75;;;5.40;99.90;;;;;;4954147;28;20058;-79
2021/05/19 01:06:07;;;;;;;22.23;14.15;;;5.40;99.90;;;;;;4953060;29;20035;-79
2021/05/19 01:11:16;;;;;;;22.98;15.68;;;5.30;99.90;;;;;;4935555;29;20081;-79
2021/05/19 01:13:47;;;;;;;25.73;14.73;;;5.30;99.90;;;;;;4943373;29;20043;-79
2021/05/19 01:16:14;;;;;;;20.23;13.63;;;5.20;99.90;;;;;;4954234;29;20043;-79
2021/05/19 01:18:40;;;;;;;24.50;13.55;;;5.20;99.90;;;;;;4953181;29;20031;-79
2021/05/19 01:21:07;;;;;;;17.25;11.98;;;5.00;99.90;;;;;;4954263;28;20033;-79
2021/05/19 01:23:33;;;;;;;18.60;12.52;;;4.90;99.90;;;;;;4954050;28;20702;-79
2021/05/19 01:26:01;;;;;;;21.33;14.90;;;4.80;99.90;;;;;;4952819;29;20047;-79
2021/05/19 01:28:27;;;;;;;25.13;14.25;;;4.80;99.90;;;;;;4953947;28;20240;-79
2021/05/19 01:30:53;;;;;;;25.30;16.10;;;4.80;99.90;;;;;;4954120;28;20106;-79
2021/05/19 01:33:18;;;;;;;27.80;15.77;;;4.80;99.90;;;;;;4954121;29;20106;-79
2021/05/19 01:35:44;;;;;;;22.10;14.02;;;4.80;99.90;;;;;;4953880;28;20063;-79
2021/05/19 01:38:12;;;;;;;28.67;14.48;;;4.80;99.90;;;;;;4952698;29;20047;-79
2021/05/19 01:40:37;;;;;;;25.92;14.02;;;4.70;99.90;;;;;;4952790;29;20034;-79
2021/05/19 01:43:04;;;;;;;19.80;13.88;;;4.70;99.90;;;;;;4953574;28;20035;-79
2021/05/19 01:45:30;;;;;;;23.92;14.00;;;4.60;99.90;;;;;;4953634;29;20038;-79
2021/05/19 01:47:55;;;;;;;25.75;13.75;;;4.50;99.90;;;;;;4968752;28;20416;-79
2021/05/19 01:50:26;;;;;;;22.63;13.82;;;4.40;99.90;;;;;;4953935;29;20032;-79
2021/05/19 01:52:57;;;;;;;19.33;13.38;;;4.40;99.90;;;;;;4952440;29;20055;-79
2021/05/19 01:55:24;;;;;;;23.42;12.07;;;4.30;99.90;;;;;;4940886;29;20500;-79
2021/05/19 01:57:51;;;;;;;21.10;12.38;;;4.30;99.90;;;;;;4968011;28;20121;-79
2021/05/19 02:00:20;;;;;;;14.07;10.05;;;4.20;99.90;;;;;;4953739;28;20058;-79
2021/05/19 02:02:58;;;;;;;17.40;11.73;;;4.10;99.90;;;;;;4953692;28;20020;-79
2021/05/19 02:05:28;;;;;;;17.17;11.98;;;4.10;99.90;;;;;;4953293;28;20038;-79
2021/05/19 02:07:54;;;;;;;18.98;11.88;;;4.10;99.90;;;;;;4955154;28;20070;-79
2021/05/19 02:10:21;;;;;;;18.40;13.18;;;4.20;99.90;;;;;;4956410;28;20396;-79
2021/05/19 02:12:47;;;;;;;26.63;14.43;;;4.20;99.90;;;;;;4957281;28;20074;-79
2021/05/19 02:15:16;;;;;;;21.50;12.95;;;4.20;99.90;;;;;;4956153;28;20027;-79
2021/05/19 02:17:42;;;;;;;15.27;11.05;;;4.20;99.90;;;;;;4957629;28;20031;-79
2021/05/19 02:20:09;;;;;;;12.32;9.18;;;4.10;99.90;;;;;;4957542;28;20110;-79
2021/05/19 02:22:35;;;;;;;11.02;9.18;;;4.20;99.90;;;;;;4957328;28;20441;-79
2021/05/19 02:25:01;;;;;;;15.23;8.70;;;4.20;99.90;;;;;;4952210;29;20043;-79
2021/05/19 02:27:27;;;;;;;14.25;9.60;;;4.30;99.90;;;;;;4938328;29;20031;-79
2021/05/19 02:29:56;;;;;;;21.52;10.43;;;4.30;99.90;;;;;;4956981;29;20027;-79
2021/05/19 02:32:22;;;;;;;16.05;11.23;;;4.40;99.90;;;;;;4955994;29;20082;-79
2021/05/19 02:34:49;;;;;;;17.00;10.95;;;4.40;99.90;;;;;;4956773;29;20074;-79
2021/05/19 02:37:14;;;;;;;17.30;11.35;;;4.50;99.90;;;;;;4956910;29;20090;-78
2021/05/19 02:39:40;;;;;;;16.17;11.93;;;4.50;99.90;;;;;;4972040;28;20031;-78
2021/05/19 02:42:06;;;;;;;18.58;11.43;;;4.60;99.90;;;;;;4971917;28;20100;-79
2021/05/19 02:44:31;;;;;;;16.88;12.48;;;4.70;99.90;;;;;;4956672;28;20031;-79
2021/05/19 02:46:57;;;;;;;20.65;11.75;;;4.80;99.90;;;;;;4956176;29;20027;-79
2021/05/19 02:49:22;;;;;;;20.25;12.32;;;4.90;99.90;;;;;;4955945;29;20027;-79
2021/05/19 02:51:48;;;;;;;16.52;11.32;;;4.90;99.90;;;;;;4956832;29;20028;-79
2021/05/19 02:54:13;;;;;;;18.70;11.23;;;4.90;99.90;;;;;;4952003;29;20068;-79
2021/05/19 02:56:39;;;;;;;12.90;9.43;;;4.80;99.90;;;;;;4937771;29;20052;-79
2021/05/19 02:59:05;;;;;;;16.67;11.40;;;4.80;99.90;;;;;;4950137;29;20046;-79
2021/05/19 03:01:30;;;;;;;17.77;12.73;;;4.80;99.90;;;;;;4956647;29;20051;-79
2021/05/19 03:03:56;;;;;;;18.88;10.48;;;4.80;99.90;;;;;;4951866;29;20031;-79
2021/05/19 03:06:24;;;;;;;14.65;10.35;;;4.90;99.90;;;;;;4937531;29;20036;-79
2021/05/19 03:08:51;;;;;;;16.48;11.70;;;5.00;99.90;;;;;;4952315;29;20047;-79
2021/05/19 03:11:17;;;;;;;17.58;11.38;;;5.00;99.90;;;;;;4936200;29;20023;-79
2021/05/19 03:13:43;;;;;;;16.67;9.07;;;5.00;99.90;;;;;;4946765;29;20094;-79
2021/05/19 03:16:09;;;;;;;13.48;8.63;;;4.90;99.90;;;;;;4956654;28;20027;-78
2021/05/19 03:18:34;;;;;;;11.85;7.93;;;4.80;99.90;;;;;;4956234;28;20365;-79
2021/05/19 03:21:01;;;;;;;11.75;7.85;;;4.80;99.90;;;;;;4955045;29;20027;-78
2021/05/19 03:23:27;;;;;;;15.93;11.48;;;4.70;99.90;;;;;;4951572;29;20089;-79
2021/05/19 03:25:53;;;;;;;17.92;11.82;;;4.60;99.90;;;;;;4936989;29;20047;-79
2021/05/19 03:28:18;;;;;;;22.63;12.98;;;4.60;99.90;;;;;;4943504;29;20027;-79
2021/05/19 03:30:44;;;;;;;25.98;16.35;;;4.60;99.90;;;;;;4956334;28;20023;-78
2021/05/19 03:33:10;;;;;;;19.02;13.07;;;4.70;99.90;;;;;;4956095;28;20498;-80
2021/05/19 03:35:36;;;;;;;22.13;13.05;;;4.70;99.90;;;;;;4955837;29;20035;-79
2021/05/19 03:38:02;;;;;;;16.40;11.88;;;4.70;99.90;;;;;;4956105;29;20031;-79
2021/05/19 03:40:28;;;;;;;17.52;11.18;;;4.70;99.90;;;;;;4956184;28;20035;-79
2021/05/19 03:42:54;;;;;;;15.13;10.43;;;4.70;99.90;;;;;;4954485;29;20106;-79
2021/05/19 03:45:22;;;;;;;16.42;10.00;;;4.70;99.90;;;;;;4954573;29;20173;-79
2021/05/19 03:47:50;;;;;;;17.17;11.57;;;4.60;99.90;;;;;;4955981;28;20547;-78
2021/05/19 03:50:17;;;;;;;16.95;11.23;;;4.50;99.90;;;;;;4955892;28;20031;-79
2021/05/19 03:52:43;;;;;;;13.50;9.50;;;4.50;99.90;;;;;;4955770;28;20212;-79
2021/05/19 03:55:10;;;;;;;15.23;10.63;;;4.50;99.90;;;;;;4955462;28;20041;-79
2021/05/19 03:57:36;;;;;;;16.90;11.48;;;4.40;99.90;;;;;;4955509;28;20195;-79
2021/05/19 04:00:05;;;;;;;16.38;10.95;;;4.40;99.90;;;;;;4970620;28;20559;-79
2021/05/19 04:02:31;;;;;;;24.38;13.32;;;4.50;99.90;;;;;;4955800;28;20039;-79
2021/05/19 04:04:56;;;;;;;18.65;11.88;;;4.60;99.90;;;;;;4953845;29;20054;-79
2021/05/19 04:07:22;;;;;;;23.45;15.05;;;4.80;99.90;;;;;;4955665;29;20077;-79
2021/05/19 04:09:47;;;;;;;32.38;17.52;;;5.00;99.90;;;;;;4955568;29;20500;-79
2021/05/19 04:12:13;;;;;;;30.33;17.85;;;5.20;99.90;;;;;;4955413;29;20388;-79
2021/05/19 04:14:38;;;;;;;23.10;15.85;;;5.40;99.90;;;;;;4955149;29;20589;-79
2021/05/19 04:17:04;;;;;;;21.98;14.85;;;5.60;99.90;;;;;;4955505;28;20035;-79
2021/05/19 04:19:29;;;;;;;23.73;16.50;;;5.80;99.90;;;;;;4955352;28;20038;-79
2021/05/19 04:21:55;;;;;;;32.45;19.40;;;5.90;99.90;;;;;;4955295;28;20038;-79
2021/05/19 04:24:21;;;;;;;32.88;20.73;;;6.00;99.90;;;;;;4953615;29;20034;-79
2021/05/19 04:26:46;;;;;;;28.65;18.05;;;6.10;99.90;;;;;;4955152;29;20035;-79
2021/05/19 04:29:12;;;;;;;28.00;17.92;;;6.30;99.90;;;;;;4954499;28;20023;-79
2021/05/19 04:31:38;;;;;;;26.95;18.52;;;6.30;99.90;;;;;;4955065;28;20063;-79
2021/05/19 04:34:03;;;;;;;26.00;16.27;;;6.40;99.90;;;;;;4950103;29;20031;-79
2021/05/19 04:36:29;;;;;;;22.95;15.40;;;6.40;99.90;;;;;;4935949;29;20074;-79
2021/05/19 04:38:54;;;;;;;23.98;14.50;;;6.40;99.90;;;;;;4934601;29;20046;-79
2021/05/19 04:41:20;;;;;;;26.58;16.02;;;6.40;99.90;;;;;;4934547;29;20023;-79
2021/05/19 04:43:46;;;;;;;24.30;15.02;;;6.50;99.90;;;;;;4945471;29;20038;-79
2021/05/19 04:46:12;;;;;;;23.58;15.20;;;6.60;99.90;;;;;;4954854;29;20080;-79
2021/05/19 04:48:38;;;;;;;36.83;22.05;;;6.70;99.90;;;;;;4954785;29;20034;-79
2021/05/19 04:51:04;;;;;;;39.75;23.70;;;6.80;99.90;;;;;;4954762;29;20023;-79
2021/05/19 04:53:29;;;;;;;28.70;20.05;;;6.90;99.90;;;;;;4954584;28;20085;-79
2021/05/19 04:55:55;;;;;;;31.33;19.13;;;7.00;99.90;;;;;;4969336;28;20121;-79
2021/05/19 04:58:25;;;;;;;31.13;21.20;;;7.00;99.90;;;;;;4954460;28;20046;-79
2021/05/19 05:00:51;;;;;;;31.55;20.67;;;7.10;99.90;;;;;;4954742;29;20170;-79
2021/05/19 05:03:18;;;;;;;29.73;19.48;;;7.10;99.90;;;;;;4954201;29;20114;-79
2021/05/19 05:05:44;;;;;;;29.08;19.80;;;7.00;99.90;;;;;;4954353;28;20023;-79
2021/05/19 05:08:09;;;;;;;27.67;18.02;;;7.00;99.90;;;;;;4954576;28;20024;-79
2021/05/19 05:10:35;;;;;;;22.70;15.85;;;7.10;99.90;;;;;;4954483;28;20019;-79
2021/05/19 05:13:00;;;;;;;28.77;17.30;;;7.10;99.90;;;;;;4969016;28;20031;-79
2021/05/19 05:15:26;;;;;;;29.33;18.65;;;7.10;99.90;;;;;;4953016;29;20051;-79
2021/05/19 05:17:51;;;;;;;30.63;19.63;;;7.20;99.90;;;;;;4954283;29;20082;-79
2021/05/19 05:20:17;;;;;;;35.25;24.02;;;7.40;99.90;;;;;;4954337;29;20102;-79
2021/05/19 05:22:43;;;;;;;40.95;26.75;;;7.70;99.90;;;;;;4954242;29;20047;-79
2021/05/19 05:25:09;;;;;;;40.78;27.33;;;7.90;99.90;;;;;;4953709;29;20448;-79
2021/05/19 05:27:35;;;;;;;48.63;31.70;;;8.10;99.90;;;;;;4954013;28;20503;-79
2021/05/19 05:30:01;;;;;;;54.38;30.17;;;8.20;99.90;;;;;;4954243;29;20027;-79
2021/05/19 05:32:26;;;;;;;45.47;29.75;;;8.40;99.90;;;;;;4952770;29;20500;-79
2021/05/19 05:34:52;;;;;;;51.83;31.65;;;8.50;99.90;;;;;;4953604;29;20030;-79
2021/05/19 05:37:18;;;;;;;49.25;32.05;;;8.70;99.90;;;;;;4968885;28;20059;-79
2021/05/19 05:39:43;;;;;;;42.13;31.83;;;8.80;99.90;;;;;;4954092;28;20051;-79
2021/05/19 05:42:09;;;;;;;45.78;30.98;;;8.90;99.90;;;;;;4953952;28;20610;-79
2021/05/19 05:44:35;;;;;;;49.17;30.80;;;9.10;99.90;;;;;;4953573;28;20027;-79
2021/05/19 05:47:01;;;;;;;41.13;29.35;;;9.20;99.90;;;;;;4953812;29;20031;-79
2021/05/19 05:49:26;;;;;;;48.88;29.05;;;9.20;99.90;;;;;;4949206;29;20086;-79
2021/05/19 05:51:52;;;;;;;35.38;26.95;;;9.30;99.90;;;;;;4933492;29;20030;-79
2021/05/19 05:54:18;;;;;;;38.63;28.17;;;9.30;99.90;;;;;;4934548;29;20371;-79
2021/05/19 05:56:43;;;;;;;44.55;24.95;;;9.40;99.90;;;;;;4934749;29;20408;-79
2021/05/19 05:59:09;;;;;;;31.92;22.23;;;9.50;99.90;;;;;;4947870;29;20027;-79
2021/05/19 06:01:35;;;;;;;23.50;19.98;;;9.70;99.90;;;;;;4950122;28;20030;-78
2021/05/19 06:04:01;;;;;;;22.80;15.75;;;9.70;99.90;;;;;;4953355;29;20031;-79
2021/05/19 06:06:26;;;;;;;17.75;14.40;;;9.80;99.90;;;;;;4953472;29;20472;-79
2021/05/19 06:08:52;;;;;;;21.92;12.07;;;9.90;99.90;;;;;;4948889;29;20040;-79
2021/05/19 06:11:18;;;;;;;16.60;12.65;;;10.10;99.90;;;;;;4933149;29;20024;-79
2021/05/19 06:13:43;;;;;;;11.88;7.55;;;10.30;99.90;;;;;;4943679;29;20038;-78
2021/05/19 06:16:09;;;;;;;11.05;8.30;;;10.20;99.90;;;;;;4953325;29;20496;-79
2021/05/19 06:18:35;;;;;;;12.57;8.15;;;10.30;99.90;;;;;;4953329;29;20042;-79
2021/05/19 06:21:00;;;;;;;12.70;7.45;;;10.20;99.90;;;;;;4953428;28;20027;-79
2021/05/19 06:23:26;;;;;;;9.20;7.18;;;10.20;99.90;;;;;;4953624;28;20023;-79
2021/05/19 06:25:52;;;;;;;7.32;5.75;;;10.20;99.90;;;;;;4951938;29;20027;-79
2021/05/19 06:28:17;;;;;;;6.28;4.93;;;10.40;99.90;;;;;;4953184;28;20023;-79
2021/05/19 06:30:43;;;;;;;6.00;4.63;;;10.90;99.90;;;;;;4953096;29;20396;-79
2021/05/19 06:33:08;;;;;;;7.15;4.75;;;11.20;99.90;;;;;;4952142;28;20611;-79
2021/05/19 06:35:34;;;;;;;6.00;3.83;;;11.40;99.90;;;;;;4953324;28;20480;-79
2021/05/19 06:38:00;;;;;;;6.57;3.90;;;11.30;99.90;;;;;;4952970;28;20035;-79
2021/05/19 06:40:25;;;;;;;4.85;3.65;;;11.40;99.90;;;;;;4953300;29;20035;-79
2021/05/19 06:42:51;;;;;;;8.93;4.80;;;11.50;99.90;;;;;;4953131;29;20042;-79
2021/05/19 06:45:16;;;;;;;9.57;5.82;;;11.80;99.90;;;;;;4952886;28;20050;-79
2021/05/19 06:47:42;;;;;;;6.72;4.28;;;12.00;99.90;;;;;;4953557;28;20106;-79
2021/05/19 06:50:08;;;;;;;6.43;4.82;;;12.00;99.90;;;;;;4953142;28;20023;-79
2021/05/19 06:52:34;;;;;;;5.22;4.63;;;11.90;99.90;;;;;;4945026;28;20539;-78
2021/05/19 06:55:01;;;;;;;10.48;4.90;;;12.10;99.90;;;;;;4952631;28;20480;-78
2021/05/19 06:57:27;;;;;;;6.07;4.72;;;12.30;99.90;;;;;;4952658;28;20170;-78
2021/05/19 06:59:53;;;;;;;6.43;4.10;;;12.50;99.90;;;;;;4950719;29;20024;-78
2021/05/19 07:02:19;;;;;;;6.28;5.40;;;12.60;99.90;;;;;;4951062;28;20037;-78
2021/05/19 07:04:44;;;;;;;6.82;4.80;;;12.50;99.90;;;;;;4952126;29;20035;-78
2021/05/19 07:07:10;;;;;;;6.07;4.85;;;12.40;99.90;;;;;;4952423;29;20166;-78
2021/05/19 07:09:36;;;;;;;6.72;3.03;;;12.20;99.90;;;;;;4952069;29;20020;-78
2021/05/19 07:12:03;;;;;;;7.45;4.78;;;12.00;99.90;;;;;;4952188;28;20712;-79
2021/05/19 07:14:29;;;;;;;3.88;3.35;;;11.80;99.90;;;;;;4950093;29;20019;-79
2021/05/19 07:16:55;;;;;;;5.07;3.55;;;11.90;99.90;;;;;;4951078;29;20039;-78
2021/05/19 07:19:22;;;;;;;4.95;4.07;;;12.30;99.90;;;;;;4952011;28;20571;-79
2021/05/19 07:21:49;;;;;;;6.35;4.18;;;12.80;99.90;;;;;;4950927;29;20062;-78
2021/05/19 07:24:15;;;;;;;9.98;4.25;;;13.10;99.90;;;;;;4966552;28;20027;-79
2021/05/19 07:26:42;;;;;;;7.18;4.75;;;13.30;99.90;;;;;;4950258;29;20055;-78
2021/05/19 07:29:09;;;;;;;10.30;4.38;;;13.20;99.90;;;;;;4955882;29;20079;-78
2021/05/19 07:31:35;;;;;;;7.63;4.40;;;13.00;99.90;;;;;;4956111;28;20436;-78
2021/05/19 07:34:01;;;;;;;5.57;4.25;;;12.60;99.90;;;;;;4956019;29;20112;-79
2021/05/19 07:36:27;;;;;;;4.45;3.65;;;12.40;99.90;;;;;;4956123;28;20042;-78
2021/05/19 07:38:54;;;;;;;5.35;3.90;;;12.30;99.90;;;;;;4955784;29;20496;-78
2021/05/19 07:41:21;;;;;;;8.07;4.10;;;12.20;99.90;;;;;;4970666;28;20027;-78
2021/05/19 07:43:47;;;;;;;5.50;3.75;;;12.20;99.90;;;;;;4946269;28;20075;-79
2021/05/19 07:46:12;;;;;;;7.63;3.83;;;12.40;99.90;;;;;;4935601;29;20440;-78
2021/05/19 07:48:38;;;;;;;5.05;3.38;;;12.30;99.90;;;;;;4939478;29;20058;-79
2021/05/19 07:51:04;;;;;;;4.18;3.28;;;12.40;99.90;;;;;;4955627;28;20031;-78
2021/05/19 07:53:29;;;;;;;4.65;3.13;;;12.40;99.90;;;;;;4955754;28;20031;-79
2021/05/19 07:56:04;;;;;;;8.10;4.00;;;12.50;99.90;;;;;;4955537;28;20511;-78
2021/05/19 07:58:36;;;;;;;6.68;3.75;;;12.50;99.90;;;;;;4955613;28;20031;-78
2021/05/19 08:01:22;;;;;;;6.07;4.20;;;12.60;99.90;;;;;;4955458;28;20035;-78
2021/05/19 08:03:48;;;;;;;6.50;3.70;;;12.70;99.90;;;;;;4955229;28;20031;-78
2021/05/19 08:06:14;;;;;;;8.70;3.50;;;12.70;99.90;;;;;;4954882;28;20023;-78
2021/05/19 08:08:40;;;;;;;6.90;3.25;;;12.70;99.90;;;;;;4970090;28;20502;-78
2021/05/19 08:11:05;;;;;;;4.68;3.30;;;12.60;99.90;;;;;;4955508;29;20019;-78
2021/05/19 08:13:33;;;;;;;5.07;3.53;;;12.50;99.90;;;;;;4955156;29;20110;-78
2021/05/19 08:15:59;;;;;;;4.43;3.55;;;12.30;99.90;;;;;;4954035;29;20027;-78
2021/05/19 08:18:24;;;;;;;7.13;4.53;;;12.40;99.90;;;;;;4953911;29;20102;-78
2021/05/19 08:20:50;;;;;;;9.13;4.97;;;12.30;99.90;;;;;;4955391;29;20023;-78
2021/05/19 08:23:17;;;;;;;8.00;4.50;;;12.30;99.90;;;;;;4954950;29;20400;-78
2021/05/19 08:25:42;;;;;;;8.55;4.50;;;12.40;99.90;;;;;;4954859;29;20034;-79
2021/05/19 08:28:08;;;;;;;6.22;4.32;;;12.70;99.90;;;;;;4955068;29;20134;-78
2021/05/19 08:30:34;;;;;;;7.25;5.18;;;13.00;99.90;;;;;;4955240;28;20063;-78
2021/05/19 08:32:59;;;;;;;6.10;3.80;;;13.10;99.90;;;;;;4955052;28;20024;-78
2021/05/19 08:35:25;;;;;;;4.53;3.78;;;13.30;99.90;;;;;;4954894;28;20400;-77
2021/05/19 08:37:50;;;;;;;6.80;4.45;;;13.30;99.90;;;;;;4954997;28;20085;-78
2021/05/19 08:40:17;;;;;;;7.10;3.72;;;13.30;99.90;;;;;;4954432;28;20125;-77
2021/05/19 08:42:42;;;;;;;5.25;3.05;;;13.20;99.90;;;;;;4952985;29;20039;-77
2021/05/19 08:45:10;;;;;;;12.50;3.38;;;12.90;99.90;;;;;;4946520;29;20608;-77
2021/05/19 08:47:36;;;;;;;6.80;3.00;;;12.90;99.90;;;;;;4949171;29;20392;-77
2021/05/19 08:50:05;;;;;;;5.85;3.22;;;12.90;99.90;;;;;;4942070;28;20028;-77
2021/05/19 08:52:30;;;;;;;5.07;3.55;;;12.80;99.90;;;;;;4950433;28;20121;-77
2021/05/19 08:54:56;;;;;;;7.57;3.47;;;12.90;99.90;;;;;;4950343;28;20492;-78
2021/05/19 08:57:22;;;;;;;6.03;2.85;;;12.90;99.90;;;;;;4949114;29;20035;-78
2021/05/19 08:59:48;;;;;;;4.95;2.65;;;13.10;99.90;;;;;;4949927;29;20023;-78
2021/05/19 09:02:15;;;;;;;11.20;3.20;;;13.20;99.90;;;;;;4948564;29;20502;-77
2021/05/19 09:04:42;;;;;;;8.98;3.05;;;13.70;99.90;;;;;;4951890;28;20637;-77
2021/05/19 09:07:16;;;;;;;6.05;2.75;;;14.00;99.90;;;;;;4950304;28;20035;-77
2021/05/19 09:09:41;;;;;;;6.28;2.55;;;14.00;99.90;;;;;;4950204;28;20031;-78
2021/05/19 09:12:12;;;;;;;6.10;3.40;;;14.10;99.90;;;;;;4949826;28;20043;-78
2021/05/19 09:14:44;;;;;;;12.35;8.27;;;14.00;99.90;;;;;;4964554;28;20081;-78
2021/05/19 09:17:18;;;;;;;13.20;4.97;;;14.00;99.90;;;;;;4947889;28;20465;-78
2021/05/19 09:19:44;;;;;;;15.23;6.95;;;14.00;99.90;;;;;;4940857;29;20035;-78
2021/05/19 09:22:21;;;;;;;6.57;3.80;;;13.80;99.90;;;;;;4949585;28;20034;-78
2021/05/19 09:24:48;;;;;;;7.60;3.75;;;13.80;99.90;;;;;;4948767;29;20086;-78
2021/05/19 09:27:13;;;;;;;5.60;3.42;;;13.80;99.90;;;;;;4949892;28;20025;-78
2021/05/19 09:29:40;;;;;;;4.85;3.47;;;13.80;99.90;;;;;;4947981;29;20403;-78
2021/05/19 09:32:08;;;;;;;4.47;3.42;;;14.00;99.90;;;;;;4949336;28;20118;-77
2021/05/19 09:34:42;;;;;;;8.60;3.38;;;14.30;99.90;;;;;;4949390;28;20024;-77
2021/05/19 09:37:11;;;;;;;7.20;4.07;;;14.00;99.90;;;;;;4949849;29;20039;-77
2021/05/19 09:40:09;;;;;;;3.63;2.78;;;14.00;99.90;;;;;;4952354;28;20030;-77
2021/05/19 09:42:44;;;;;;;2.90;2.60;;;14.00;99.90;;;;;;4949191;28;20543;-77
2021/05/19 09:45:20;;;;;;;2.97;2.40;;;14.30;99.90;;;;;;4940608;29;20086;-79
2021/05/19 09:47:46;;;;;;;8.10;3.42;;;14.80;99.90;;;;;;4949692;28;20517;-78
2021/05/19 09:50:15;;;;;;;10.77;2.20;;;15.30;99.90;;;;;;4949357;28;20038;-78
2021/05/19 09:53:07;;;;;;;5.85;2.72;;;15.70;99.90;;;;;;4963708;28;20031;-79
2021/05/19 09:55:38;;;;;;;3.67;1.85;;;15.80;99.90;;;;;;4946765;29;20093;-78
2021/05/19 09:58:04;;;;;;;3.92;2.40;;;15.30;99.90;;;;;;4963944;28;20023;-78
2021/05/19 10:00:31;;;;;;;4.80;2.47;;;15.60;99.90;;;;;;4949358;29;20050;-78
2021/05/19 10:02:57;;;;;;;5.20;2.47;;;15.10;99.90;;;;;;4949098;28;20023;-78
2021/05/19 10:05:34;;;;;;;5.05;2.67;;;14.90;99.90;;;;;;4949172;29;20030;-78
2021/05/19 10:07:59;;;;;;;4.68;2.60;;;15.30;99.90;;;;;;4949653;29;20023;-77
2021/05/19 10:10:26;;;;;;;4.03;2.50;;;15.50;99.90;;;;;;4949114;29;20024;-78
2021/05/19 10:12:53;;;;;;;3.47;2.15;;;15.90;99.90;;;;;;4947110;29;20054;-78
2021/05/19 10:15:28;;;;;;;7.05;2.22;;;16.20;99.90;;;;;;4949329;28;20047;-79
2021/05/19 10:18:01;;;;;;;6.68;2.92;;;16.10;99.90;;;;;;4949303;29;20035;-78
2021/05/19 10:20:29;;;;;;;4.53;3.40;;;15.80;99.90;;;;;;4949213;28;20024;-79
2021/05/19 10:22:55;;;;;;;4.90;2.50;;;15.90;99.90;;;;;;4947139;29;20031;-78
2021/05/19 10:25:50;;;;;;;4.50;2.67;;;15.40;99.90;;;;;;4963985;28;20453;-78
2021/05/19 10:28:18;;;;;;;5.85;2.95;;;15.50;99.90;;;;;;4942201;29;20039;-78
2021/05/19 10:30:57;;;;;;;7.68;3.45;;;15.50;99.90;;;;;;4953081;28;20487;-78
2021/05/19 10:33:29;;;;;;;5.85;3.72;;;15.40;99.90;;;;;;4967164;28;20031;-78
2021/05/19 10:36:17;;;;;;;5.88;3.50;;;15.60;99.90;;;;;;4952670;29;20567;-78
2021/05/19 10:38:43;;;;;;;4.93;2.88;;;15.70;99.90;;;;;;4953025;28;20047;-77
2021/05/19 10:41:08;;;;;;;5.90;3.22;;;15.80;99.90;;;;;;4952741;28;20559;-77
2021/05/19 10:43:47;;;;;;;4.43;2.78;;;15.20;99.90;;;;;;4951685;29;20047;-78
2021/05/19 10:46:14;;;;;;;3.00;2.55;;;15.10;99.90;;;;;;4949054;29;20400;-78
2021/05/19 10:48:41;;;;;;;2.70;2.20;;;15.40;99.90;;;;;;4951466;29;20063;-78
2021/05/19 10:51:58;;;;;;;3.60;3.25;;;15.70;99.90;;;;;;4952427;28;20070;-77
2021/05/19 10:57:30;;;;;;;;;;;16.30;99.90;;;;;;4957549;29;20122;-78
2021/05/19 11:00:19;;;;;;;7.30;4.55;;;16.40;99.90;;;;;;4956427;28;20371;-78
2021/05/19 11:03:04;;;;;;;18.63;6.63;;;15.40;99.90;;;;;;4956777;28;20115;-77
2021/05/19 11:05:35;;;;;;;12.25;7.57;;;15.30;99.90;;;;;;4937406;29;20055;-77
2021/05/19 11:08:07;;;;;;;26.88;12.98;;;15.50;99.90;;;;;;4959689;28;20411;-77
2021/05/19 11:10:34;;;;;;;32.70;16.33;;;15.20;99.90;;;;;;4956688;29;20043;-78
2021/05/19 11:13:00;;;;;;;41.42;19.38;;;15.00;99.90;;;;;;4956341;28;20098;-77
2021/05/19 11:15:48;;;;;;;32.10;15.40;;;14.60;99.90;;;;;;4955217;29;20118;-78
2021/05/19 11:21:13;;;;;;;;;;;14.60;99.90;;;;;;4957221;28;20034;-77
2021/05/19 11:23:39;;;;;;;23.10;10.20;;;14.20;99.90;;;;;;4956104;29;20116;-77
2021/05/19 11:26:13;;;;;;;103.78;39.63;;;13.90;99.90;;;;;;4970875;28;20118;-77
2021/05/19 11:28:39;;;;;;;31.08;10.32;;;13.80;99.90;;;;;;4954747;28;20023;-77
2021/05/19 11:31:17;;;;;;;39.22;14.63;;;13.70;99.90;;;;;;4956289;28;20023;-77
2021/05/19 11:33:54;;;;;;;12.13;6.40;;;14.20;99.90;;;;;;4955829;28;20039;-77
2021/05/19 11:36:41;;;;;;;8.60;5.45;;;15.00;99.90;;;;;;4956255;28;20027;-77
2021/05/19 11:39:39;;;;;;;8.15;4.38;;;15.00;99.90;;;;;;4954593;28;20130;-77
2021/05/19 11:42:29;;;;;;;8.55;4.60;;;15.70;99.90;;;;;;4950000;28;20097;-77
2021/05/19 11:45:02;;;;;;;8.25;3.97;;;16.50;99.90;;;;;;4946905;28;20042;-77
2021/05/19 11:47:31;;;;;;;23.83;11.00;;;16.70;99.90;;;;;;4948732;28;20104;-77
2021/05/19 11:50:20;;;;;;;7.25;4.05;;;16.70;99.90;;;;;;4950808;29;20035;-76
2021/05/19 11:52:49;;;;;;;5.63;2.95;;;16.30;99.90;;;;;;4946383;29;20114;-77
2021/05/19 11:55:26;;;;;;;4.70;3.08;;;16.70;99.90;;;;;;4951167;29;20038;-77
2021/05/19 11:58:09;;;;;;;3.67;1.70;;;17.20;99.90;;;;;;4951279;29;20126;-77
2021/05/19 12:00:41;;;;;;;3.80;2.57;;;17.20;99.90;;;;;;4951280;28;20023;-77
2021/05/19 12:03:08;;;;;;;3.58;1.90;;;17.00;99.90;;;;;;4966106;28;20263;-77
2021/05/19 12:05:51;;;;;;;4.25;2.15;;;16.10;99.90;;;;;;4950812;28;20070;-78
2021/05/19 12:08:22;;;;;;;4.05;2.50;;;15.50;99.90;;;;;;4951762;28;20081;-77
2021/05/19 12:11:09;;;;;;;10.80;2.22;;;15.60;99.90;;;;;;4951373;29;20024;-77
2021/05/19 12:13:36;;;;;;;4.45;2.40;;;15.30;99.90;;;;;;4949521;29;20027;-76
2021/05/19 12:16:05;;;;;;;7.53;3.00;;;14.80;99.90;;;;;;4950852;28;20035;-77
2021/05/19 12:18:30;;;;;;;4.13;2.83;;;15.40;99.90;;;;;;4951085;28;20439;-77
2021/05/19 12:20:56;;;;;;;5.00;2.50;;;16.30;99.90;;;;;;4950998;29;20114;-78
2021/05/19 12:23:22;;;;;;;6.53;2.47;;;16.90;99.90;;;;;;4948906;28;20400;-78
2021/05/19 12:25:47;;;;;;;7.28;2.28;;;17.20;99.90;;;;;;4950512;29;20082;-78
2021/05/19 12:28:24;;;;;;;4.72;2.20;;;17.20;99.90;;;;;;4948214;29;20081;-77
2021/05/19 12:30:58;;;;;;;4.55;2.42;;;16.70;99.90;;;;;;4944077;29;20023;-78
2021/05/19 12:33:35;;;;;;;4.75;2.53;;;16.40;99.90;;;;;;4948956;28;20059;-78
2021/05/19 12:36:01;;;;;;;2.25;1.60;;;16.60;99.90;;;;;;4945684;29;20046;-78
2021/05/19 12:38:26;;;;;;;2.40;1.20;;;17.50;99.90;;;;;;4949699;28;20039;-77
2021/05/19 12:40:53;;;;;;;4.13;1.80;;;17.50;99.90;;;;;;4952020;29;20035;-78
2021/05/19 12:43:27;;;;;;;3.60;1.25;;;18.20;99.90;;;;;;4954411;28;20031;-78
2021/05/19 12:45:54;;;;;;;3.90;1.90;;;18.00;99.90;;;;;;4954485;28;20023;-77
2021/05/19 12:48:23;;;;;;;3.60;1.30;;;17.80;99.90;;;;;;4954882;28;20488;-77
2021/05/19 12:50:57;;;;;;;6.43;1.75;;;17.80;99.90;;;;;;4954384;28;20485;-77
2021/05/19 12:53:36;;;;;;;3.50;1.60;;;17.80;99.90;;;;;;4954596;28;20111;-77